PHDTS EHGG-EHLE
Flight info
| Callsign | PHDTS |
|---|---|
| Flight time | 0h 38m |
| Altitude | 6000 |
| Route | ROLDU T602 EKNON |
| Aircraft | DA42/L-SY/S |
Departure
| Time | 2026-05-04 14:15 |
|---|---|
| Airport | Groningen Airport Eelde (EHGG) |
Arrival
| Time | 2026-05-04 14:54 |
|---|---|
| Airport | Lelystad Airport (EHLE) |
| Time | Latitude | Longitude | Altitude | Speed | Heading |
|---|---|---|---|---|---|
| 2026-05-04 14:14 | 53.07319 | 6.57966 | 2721 ft | 99 kts | 203° |
| 2026-05-04 14:15 | 53.06272 | 6.56445 | 2904 ft | 104 kts | 229° |
| 2026-05-04 14:15 | 53.05291 | 6.54721 | 3153 ft | 100 kts | 233° |
| 2026-05-04 14:16 | 53.04531 | 6.52905 | 3482 ft | 95 kts | 238° |
| 2026-05-04 14:16 | 53.04192 | 6.51967 | 3615 ft | 95 kts | 240° |
| 2026-05-04 14:17 | 53.03448 | 6.50252 | 3901 ft | 93 kts | 226° |
| 2026-05-04 14:17 | 53.02994 | 6.49490 | 4049 ft | 92 kts | 226° |
| 2026-05-04 14:17 | 53.02089 | 6.47931 | 4280 ft | 95 kts | 230° |
| 2026-05-04 14:18 | 53.01671 | 6.47119 | 4449 ft | 91 kts | 231° |
| 2026-05-04 14:18 | 53.00790 | 6.45591 | 4731 ft | 91 kts | 224° |
| 2026-05-04 14:19 | 52.99936 | 6.43996 | 4983 ft | 89 kts | 228° |
| 2026-05-04 14:19 | 52.99502 | 6.43232 | 5091 ft | 92 kts | 227° |
| 2026-05-04 14:19 | 52.99041 | 6.42476 | 5214 ft | 93 kts | 225° |
| 2026-05-04 14:19 | 52.98577 | 6.41743 | 5353 ft | 92 kts | 225° |
| 2026-05-04 14:20 | 52.98153 | 6.40940 | 5471 ft | 93 kts | 233° |
| 2026-05-04 14:20 | 52.97753 | 6.40113 | 5607 ft | 92 kts | 232° |
| 2026-05-04 14:20 | 52.97355 | 6.39279 | 5719 ft | 93 kts | 232° |
| 2026-05-04 14:21 | 52.96545 | 6.37629 | 5961 ft | 94 kts | 229° |
| 2026-05-04 14:21 | 52.96070 | 6.36824 | 5991 ft | 102 kts | 225° |
| 2026-05-04 14:21 | 52.95535 | 6.36003 | 5999 ft | 108 kts | 223° |
| 2026-05-04 14:21 | 52.94985 | 6.35122 | 6007 ft | 111 kts | 226° |
| 2026-05-04 14:22 | 52.94629 | 6.34512 | 6022 ft | 111 kts | 226° |
| 2026-05-04 14:22 | 52.94173 | 6.33741 | 5969 ft | 75 kts | 228° |
| 2026-05-04 14:22 | 52.93868 | 6.33152 | 5683 ft | 85 kts | 231° |
| 2026-05-04 14:22 | 52.93305 | 6.32090 | 5759 ft | 100 kts | 229° |
| 2026-05-04 14:23 | 52.92340 | 6.30282 | 5964 ft | 120 kts | 229° |
| 2026-05-04 14:23 | 52.91944 | 6.29563 | 5968 ft | 129 kts | 228° |
| 2026-05-04 14:23 | 52.91326 | 6.28468 | 5962 ft | 131 kts | 227° |
| 2026-05-04 14:24 | 52.90705 | 6.27376 | 5957 ft | 131 kts | 227° |
| 2026-05-04 14:24 | 52.90084 | 6.26286 | 5977 ft | 129 kts | 229° |
| 2026-05-04 14:24 | 52.89489 | 6.25185 | 5990 ft | 129 kts | 229° |
| 2026-05-04 14:24 | 52.88895 | 6.24073 | 5986 ft | 129 kts | 229° |
| 2026-05-04 14:25 | 52.88295 | 6.22954 | 5978 ft | 130 kts | 229° |
| 2026-05-04 14:25 | 52.87087 | 6.20717 | 5954 ft | 130 kts | 229° |
| 2026-05-04 14:25 | 52.86465 | 6.19631 | 5944 ft | 130 kts | 227° |
| 2026-05-04 14:26 | 52.85844 | 6.18553 | 5936 ft | 129 kts | 227° |
| 2026-05-04 14:26 | 52.85236 | 6.17476 | 5934 ft | 128 kts | 229° |
| 2026-05-04 14:26 | 52.84645 | 6.16378 | 5930 ft | 129 kts | 229° |
| 2026-05-04 14:26 | 52.84034 | 6.15282 | 5926 ft | 130 kts | 227° |
| 2026-05-04 14:27 | 52.83396 | 6.14211 | 5956 ft | 130 kts | 225° |
| 2026-05-04 14:27 | 52.82769 | 6.13146 | 5963 ft | 130 kts | 226° |
| 2026-05-04 14:27 | 52.82152 | 6.12056 | 5980 ft | 130 kts | 230° |
| 2026-05-04 14:27 | 52.81555 | 6.10935 | 5996 ft | 130 kts | 229° |
| 2026-05-04 14:28 | 52.80947 | 6.09829 | 5995 ft | 131 kts | 228° |
| 2026-05-04 14:28 | 52.80339 | 6.08699 | 6001 ft | 131 kts | 230° |
| 2026-05-04 14:28 | 52.79730 | 6.07581 | 6017 ft | 131 kts | 227° |
| 2026-05-04 14:28 | 52.79092 | 6.06490 | 6020 ft | 132 kts | 226° |
| 2026-05-04 14:29 | 52.77775 | 6.04345 | 5961 ft | 138 kts | 223° |
| 2026-05-04 14:29 | 52.76092 | 6.02978 | 5766 ft | 143 kts | 184° |
| 2026-05-04 14:30 | 52.75108 | 6.02917 | 5756 ft | 139 kts | 184° |
| 2026-05-04 14:30 | 52.74134 | 6.02822 | 5629 ft | 141 kts | 187° |
| 2026-05-04 14:30 | 52.72209 | 6.02407 | 5544 ft | 143 kts | 192° |
| 2026-05-04 14:31 | 52.71207 | 6.02227 | 5406 ft | 145 kts | 185° |
| 2026-05-04 14:31 | 52.69202 | 6.02369 | 5081 ft | 143 kts | 179° |
| 2026-05-04 14:32 | 52.67204 | 6.02286 | 4971 ft | 142 kts | 186° |
| 2026-05-04 14:32 | 52.66221 | 6.02164 | 4960 ft | 142 kts | 187° |
| 2026-05-04 14:32 | 52.65240 | 6.01960 | 4941 ft | 141 kts | 188° |
| 2026-05-04 14:32 | 52.64267 | 6.01777 | 4937 ft | 140 kts | 187° |
| 2026-05-04 14:33 | 52.63306 | 6.01718 | 4962 ft | 137 kts | 180° |
| 2026-05-04 14:33 | 52.62347 | 6.01783 | 4947 ft | 138 kts | 180° |
| 2026-05-04 14:33 | 52.61388 | 6.01754 | 4933 ft | 138 kts | 184° |
| 2026-05-04 14:33 | 52.60430 | 6.01712 | 4931 ft | 137 kts | 183° |
| 2026-05-04 14:34 | 52.59488 | 6.01621 | 4958 ft | 134 kts | 186° |
| 2026-05-04 14:34 | 52.58565 | 6.01458 | 4977 ft | 134 kts | 187° |
| 2026-05-04 14:34 | 52.57625 | 6.01349 | 4949 ft | 136 kts | 184° |
| 2026-05-04 14:34 | 52.56685 | 6.01274 | 4961 ft | 135 kts | 185° |
| 2026-05-04 14:35 | 52.55746 | 6.01172 | 4954 ft | 135 kts | 186° |
| 2026-05-04 14:35 | 52.54813 | 6.01057 | 4954 ft | 134 kts | 187° |
| 2026-05-04 14:35 | 52.54019 | 6.00270 | 4804 ft | 141 kts | 234° |
| 2026-05-04 14:35 | 52.53428 | 5.99022 | 4719 ft | 137 kts | 231° |
| 2026-05-04 14:36 | 52.52856 | 5.97813 | 4612 ft | 133 kts | 237° |
| 2026-05-04 14:36 | 52.52379 | 5.96512 | 4473 ft | 133 kts | 239° |
| 2026-05-04 14:36 | 52.51877 | 5.95234 | 4326 ft | 133 kts | 239° |
| 2026-05-04 14:36 | 52.51431 | 5.93914 | 4195 ft | 132 kts | 240° |
| 2026-05-04 14:37 | 52.50950 | 5.92615 | 3972 ft | 137 kts | 244° |
| 2026-05-04 14:37 | 52.50524 | 5.91235 | 3876 ft | 132 kts | 243° |
| 2026-05-04 14:37 | 52.50106 | 5.89877 | 3698 ft | 135 kts | 244° |
| 2026-05-04 14:37 | 52.49658 | 5.88508 | 3516 ft | 137 kts | 240° |
| 2026-05-04 14:38 | 52.49163 | 5.87193 | 3398 ft | 134 kts | 240° |
| 2026-05-04 14:38 | 52.48695 | 5.85845 | 3210 ft | 137 kts | 242° |
| 2026-05-04 14:38 | 52.48229 | 5.84507 | 3086 ft | 134 kts | 241° |
| 2026-05-04 14:38 | 52.47793 | 5.83139 | 2912 ft | 134 kts | 242° |
| 2026-05-04 14:39 | 52.47326 | 5.81846 | 2939 ft | 131 kts | 240° |
| 2026-05-04 14:39 | 52.46877 | 5.80552 | 2966 ft | 129 kts | 241° |
| 2026-05-04 14:39 | 52.46429 | 5.79277 | 2974 ft | 129 kts | 239° |
| 2026-05-04 14:40 | 52.45528 | 5.76729 | 2989 ft | 130 kts | 242° |
| 2026-05-04 14:40 | 52.45103 | 5.75414 | 2984 ft | 132 kts | 243° |
| 2026-05-04 14:40 | 52.44663 | 5.74099 | 2993 ft | 130 kts | 245° |
| 2026-05-04 14:40 | 52.44323 | 5.72719 | 2993 ft | 130 kts | 253° |
| 2026-05-04 14:41 | 52.44243 | 5.71253 | 2947 ft | 133 kts | 279° |
| 2026-05-04 14:41 | 52.44159 | 5.69794 | 2942 ft | 132 kts | 234° |
| 2026-05-04 14:41 | 52.42983 | 5.67567 | 3033 ft | 132 kts | 230° |
| 2026-05-04 14:42 | 52.41786 | 5.65243 | 3017 ft | 139 kts | 235° |
| 2026-05-04 14:42 | 52.41313 | 5.63871 | 3028 ft | 138 kts | 245° |
| 2026-05-04 14:42 | 52.40881 | 5.62452 | 2997 ft | 138 kts | 243° |
| 2026-05-04 14:43 | 52.40406 | 5.61129 | 2947 ft | 134 kts | 239° |
| 2026-05-04 14:43 | 52.39870 | 5.59841 | 2755 ft | 139 kts | 237° |
| 2026-05-04 14:43 | 52.39370 | 5.58483 | 2617 ft | 139 kts | 240° |
| 2026-05-04 14:43 | 52.38864 | 5.57136 | 2499 ft | 139 kts | 239° |
| 2026-05-04 14:44 | 52.38379 | 5.55754 | 2360 ft | 140 kts | 241° |
| 2026-05-04 14:44 | 52.37893 | 5.54388 | 2241 ft | 139 kts | 240° |
| 2026-05-04 14:44 | 52.37394 | 5.53024 | 2096 ft | 140 kts | 241° |
| 2026-05-04 14:44 | 52.36890 | 5.51708 | 2036 ft | 135 kts | 235° |
| 2026-05-04 14:45 | 52.36353 | 5.50436 | 1969 ft | 138 kts | 236° |
| 2026-05-04 14:45 | 52.35789 | 5.49170 | 1938 ft | 138 kts | 234° |
| 2026-05-04 14:45 | 52.35230 | 5.47917 | 1948 ft | 134 kts | 236° |
| 2026-05-04 14:45 | 52.34698 | 5.46684 | 1978 ft | 132 kts | 236° |
| 2026-05-04 14:46 | 52.34174 | 5.45437 | 1949 ft | 134 kts | 233° |
| 2026-05-04 14:46 | 52.33584 | 5.44275 | 2017 ft | 129 kts | 232° |
| 2026-05-04 14:46 | 52.33007 | 5.43125 | 1979 ft | 132 kts | 234° |
| 2026-05-04 14:46 | 52.32452 | 5.41970 | 2019 ft | 127 kts | 235° |
| 2026-05-04 14:47 | 52.31871 | 5.40833 | 1954 ft | 131 kts | 231° |
| 2026-05-04 14:47 | 52.31443 | 5.39570 | 1953 ft | 126 kts | 263° |
| 2026-05-04 14:47 | 52.31542 | 5.38195 | 1876 ft | 125 kts | 294° |
| 2026-05-04 14:47 | 52.32058 | 5.36985 | 1715 ft | 131 kts | 315° |
| 2026-05-04 14:48 | 52.32715 | 5.36025 | 1732 ft | 123 kts | 325° |
| 2026-05-04 14:48 | 52.33461 | 5.35328 | 1644 ft | 125 kts | 333° |
| 2026-05-04 14:48 | 52.34261 | 5.34771 | 1568 ft | 124 kts | 353° |
| 2026-05-04 14:48 | 52.35046 | 5.35269 | 1593 ft | 117 kts | 26° |
| 2026-05-04 14:49 | 52.35811 | 5.35690 | 1620 ft | 114 kts | 14° |
| 2026-05-04 14:49 | 52.36534 | 5.36083 | 1706 ft | 109 kts | 29° |
| 2026-05-04 14:49 | 52.37112 | 5.36899 | 1745 ft | 108 kts | 39° |
| 2026-05-04 14:49 | 52.37679 | 5.37747 | 1708 ft | 116 kts | 43° |
| 2026-05-04 14:50 | 52.38193 | 5.38749 | 1765 ft | 114 kts | 52° |
| 2026-05-04 14:50 | 52.38656 | 5.39752 | 1800 ft | 107 kts | 42° |
| 2026-05-04 14:50 | 52.39191 | 5.40617 | 1631 ft | 109 kts | 41° |
| 2026-05-04 14:50 | 52.39730 | 5.41453 | 1491 ft | 105 kts | 38° |
| 2026-05-04 14:51 | 52.40235 | 5.42320 | 1293 ft | 107 kts | 48° |
| 2026-05-04 14:51 | 52.40694 | 5.43273 | 1155 ft | 103 kts | 47° |
| 2026-05-04 14:51 | 52.41175 | 5.44117 | 1053 ft | 100 kts | 43° |
| 2026-05-04 14:51 | 52.41657 | 5.44958 | 909 ft | 102 kts | 42° |
| 2026-05-04 14:52 | 52.42148 | 5.45792 | 765 ft | 103 kts | 43° |
| 2026-05-04 14:52 | 52.42639 | 5.46654 | 615 ft | 102 kts | 44° |
| 2026-05-04 14:52 | 52.43112 | 5.47511 | 466 ft | 102 kts | 45° |
| 2026-05-04 14:52 | 52.43553 | 5.48314 | 380 ft | 89 kts | 42° |
| 2026-05-04 14:53 | 52.43974 | 5.49033 | 242 ft | 86 kts | 45° |
| 2026-05-04 14:53 | 52.44373 | 5.49764 | 118 ft | 86 kts | 43° |
| 2026-05-04 14:53 | 52.44772 | 5.50475 | 16 ft | 84 kts | 41° |
| 2026-05-04 14:53 | 52.45085 | 5.51030 | -9 ft | 52 kts | 50° |
| 2026-05-04 14:54 | 52.45270 | 5.51365 | -8 ft | 26 kts | 46° |
| 2026-05-04 14:54 | 52.45304 | 5.51527 | -8 ft | 15 kts | 136° |
| 2026-05-04 14:54 | 52.45247 | 5.51612 | -10 ft | 0 kts | 137° |
| 2026-05-04 14:55 | 52.45241 | 5.51620 | -10 ft | 5 kts | 141° |
| 2026-05-04 14:55 | 52.45198 | 5.51621 | -10 ft | 9 kts | 194° |
| 2026-05-04 14:55 | 52.45136 | 5.51698 | -10 ft | 14 kts | 137° |
| 2026-05-04 14:55 | 52.45108 | 5.51766 | -10 ft | 6 kts | 50° |
| 2026-05-04 14:56 | 52.45128 | 5.51760 | -10 ft | 0 kts | 317° |